createdAt,value
2018-09-03T00:00:39.207Z,53.37
2018-09-03T00:01:39.628Z,53.39
2018-09-03T00:02:40.102Z,53.40
2018-09-03T00:03:40.570Z,53.41
2018-09-03T00:04:41.040Z,53.32
2018-09-03T00:05:41.511Z,53.30
2018-09-03T00:06:42.093Z,53.27
2018-09-03T00:07:42.452Z,53.16
2018-09-03T00:08:42.921Z,53.07
2018-09-03T00:09:43.394Z,53.03
2018-09-03T00:10:43.864Z,52.92
2018-09-03T00:11:44.333Z,52.85
2018-09-03T00:12:44.802Z,52.78
2018-09-03T00:13:45.270Z,52.63
2018-09-03T00:14:45.743Z,52.47
2018-09-03T00:15:46.214Z,52.37
2018-09-03T00:16:46.682Z,52.23
2018-09-03T00:17:47.154Z,52.07
2018-09-03T00:18:47.627Z,51.98
2018-09-03T00:19:48.094Z,51.92
2018-09-03T00:20:48.564Z,51.87
2018-09-03T00:21:49.035Z,51.79
2018-09-03T00:22:49.506Z,51.76
2018-09-03T00:23:49.976Z,51.70
2018-09-03T00:24:50.450Z,51.68
2018-09-03T00:25:50.972Z,51.63
2018-09-03T00:26:51.391Z,51.61
2018-09-03T00:27:51.864Z,51.58
2018-09-03T00:28:52.358Z,51.50
2018-09-03T00:29:52.804Z,51.44
2018-09-03T00:30:53.278Z,51.40
2018-09-03T00:31:53.749Z,51.41
2018-09-03T00:32:54.221Z,51.44
2018-09-03T00:33:54.694Z,51.37
2018-09-03T00:34:55.166Z,51.34
2018-09-03T00:35:55.638Z,51.31
2018-09-03T00:36:56.110Z,51.29
2018-09-03T00:37:56.583Z,51.30
2018-09-03T00:38:57.058Z,51.31
2018-09-03T00:39:57.529Z,51.34
2018-09-03T00:40:58.001Z,51.34
2018-09-03T00:41:58.475Z,51.32
2018-09-03T00:42:58.950Z,51.37
2018-09-03T00:43:59.423Z,51.43
2018-09-03T00:44:59.895Z,51.45
2018-09-03T00:46:00.420Z,51.46
2018-09-03T00:47:00.844Z,51.51
2018-09-03T00:48:01.317Z,51.56
2018-09-03T00:49:01.789Z,51.67
2018-09-03T00:50:02.265Z,51.76
2018-09-03T00:51:02.737Z,51.86
2018-09-03T00:52:03.211Z,51.98
2018-09-03T00:53:03.685Z,52.05
2018-09-03T00:54:04.159Z,52.14
2018-09-03T00:55:04.634Z,52.22
2018-09-03T00:56:05.156Z,52.26
2018-09-03T00:57:05.580Z,52.33
2018-09-03T00:58:06.052Z,52.40
2018-09-03T00:59:06.531Z,52.47
2018-09-03T01:00:07.001Z,52.57
2018-09-03T01:01:07.471Z,52.68
2018-09-03T01:02:07.942Z,52.81
2018-09-03T01:03:08.416Z,52.92
2018-09-03T01:04:08.887Z,53.06
2018-09-03T01:05:09.362Z,53.17
2018-09-03T01:06:09.832Z,53.30
2018-09-03T01:07:10.303Z,53.38
2018-09-03T01:08:10.773Z,53.46
2018-09-03T01:09:11.245Z,53.58
2018-09-03T01:10:11.717Z,53.67
2018-09-03T01:11:12.238Z,53.76
2018-09-03T01:12:12.658Z,53.83
2018-09-03T01:13:13.128Z,53.88
2018-09-03T01:14:13.600Z,53.88
2018-09-03T01:15:14.069Z,53.84
2018-09-03T01:16:14.538Z,53.79
2018-09-03T01:17:15.012Z,53.72
2018-09-03T01:18:15.478Z,53.66
2018-09-03T01:19:15.949Z,53.57
2018-09-03T01:20:16.417Z,53.47
2018-09-03T01:21:16.890Z,53.40
2018-09-03T01:22:17.357Z,53.35
2018-09-03T01:23:17.827Z,53.22
2018-09-03T01:24:18.297Z,53.11
2018-09-03T01:25:18.766Z,52.93
2018-09-03T01:26:19.237Z,52.79
2018-09-03T01:27:19.708Z,52.67
2018-09-03T01:28:20.175Z,52.55
2018-09-03T01:29:20.648Z,52.36
2018-09-03T01:30:21.118Z,52.24
2018-09-03T01:31:21.589Z,52.09
2018-09-03T01:32:22.059Z,51.98
2018-09-03T01:33:22.528Z,51.87
2018-09-03T01:34:23.000Z,51.78
2018-09-03T01:35:23.470Z,51.71
2018-09-03T01:36:23.943Z,51.69
2018-09-03T01:37:24.412Z,51.65
2018-09-03T01:38:24.883Z,51.61
2018-09-03T01:39:25.357Z,51.59
2018-09-03T01:40:25.825Z,51.62
2018-09-03T01:41:26.297Z,51.60
2018-09-03T01:42:26.768Z,51.58
2018-09-03T01:43:27.240Z,51.59
2018-09-03T01:44:27.712Z,51.56
2018-09-03T01:45:28.183Z,51.52
2018-09-03T01:46:28.655Z,51.53
2018-09-03T01:47:29.128Z,51.55
2018-09-03T01:48:29.599Z,51.55
2018-09-03T01:49:30.074Z,51.51
2018-09-03T01:50:30.547Z,51.57
2018-09-03T01:51:31.017Z,51.58
2018-09-03T01:52:31.488Z,51.59
2018-09-03T01:53:31.963Z,51.62
2018-09-03T01:54:32.434Z,51.62
2018-09-03T01:55:32.908Z,51.65
2018-09-03T01:56:33.380Z,51.63
2018-09-03T01:57:33.855Z,51.64
2018-09-03T01:58:34.327Z,51.68
2018-09-03T01:59:34.801Z,51.77
2018-09-03T02:00:35.277Z,51.84
2018-09-03T02:01:35.748Z,51.93
2018-09-03T02:02:36.222Z,52.04
2018-09-03T02:03:36.695Z,52.16
2018-09-03T02:04:37.171Z,52.29
2018-09-03T02:05:37.644Z,52.40
2018-09-03T02:06:38.115Z,52.52
2018-09-03T02:07:38.590Z,52.64
2018-09-03T02:08:39.061Z,52.75
2018-09-03T02:09:39.536Z,52.88
2018-09-03T02:10:40.009Z,53.00
2018-09-03T02:11:40.532Z,53.08
2018-09-03T02:12:40.956Z,53.17
2018-09-03T02:13:41.446Z,53.24
2018-09-03T02:14:41.900Z,53.32
2018-09-03T02:15:42.372Z,53.42
2018-09-03T02:16:42.844Z,53.51
2018-09-03T02:17:43.315Z,53.60
2018-09-03T02:18:43.794Z,53.74
2018-09-03T02:19:44.293Z,53.87
2018-09-03T02:20:44.731Z,53.97
2018-09-03T02:21:45.200Z,54.11
2018-09-03T02:22:45.672Z,54.24
2018-09-03T02:23:46.146Z,54.34
2018-09-03T02:24:46.614Z,54.41
2018-09-03T02:25:47.084Z,54.47
2018-09-03T02:26:47.554Z,54.49
2018-09-03T02:27:48.023Z,54.43
2018-09-03T02:28:48.494Z,54.35
2018-09-03T02:29:48.965Z,54.25
2018-09-03T02:30:49.434Z,54.19
2018-09-03T02:31:49.903Z,54.11
2018-09-03T02:32:50.372Z,54.01
2018-09-03T02:33:50.846Z,53.92
2018-09-03T02:34:51.312Z,53.78
2018-09-03T02:35:51.792Z,53.63
2018-09-03T02:36:52.250Z,53.50
2018-09-03T02:37:52.721Z,53.28
2018-09-03T02:38:53.189Z,53.09
2018-09-03T02:39:53.661Z,52.87
2018-09-03T02:40:54.130Z,52.75
2018-09-03T02:41:54.600Z,52.63
2018-09-03T02:42:55.071Z,52.54
2018-09-03T02:43:55.540Z,52.40
2018-09-03T02:44:56.015Z,52.29
2018-09-03T02:45:56.485Z,52.20
2018-09-03T02:46:56.952Z,52.11
2018-09-03T02:47:57.424Z,52.05
2018-09-03T02:48:57.891Z,52.02
2018-09-03T02:49:58.360Z,51.96
2018-09-03T02:50:58.833Z,51.91
2018-09-03T02:51:59.302Z,51.88
2018-09-03T02:52:59.773Z,51.85
2018-09-03T02:54:00.244Z,51.84
2018-09-03T02:55:00.715Z,51.78
2018-09-03T02:56:01.187Z,51.75
2018-09-03T02:57:01.659Z,51.65
2018-09-03T02:58:02.131Z,51.58
2018-09-03T02:59:02.602Z,51.53
2018-09-03T03:00:03.073Z,51.49
2018-09-03T03:01:03.544Z,51.51
2018-09-03T03:02:04.016Z,51.47
2018-09-03T03:03:04.488Z,51.46
2018-09-03T03:04:04.960Z,51.50
2018-09-03T03:05:05.430Z,51.51
2018-09-03T03:06:05.902Z,51.55
2018-09-03T03:07:06.426Z,51.51
2018-09-03T03:08:06.848Z,51.54
2018-09-03T03:09:07.321Z,51.58
2018-09-03T03:10:07.792Z,51.56
2018-09-03T03:11:08.264Z,51.56
2018-09-03T03:12:08.736Z,51.59
2018-09-03T03:13:09.210Z,51.62
2018-09-03T03:14:09.683Z,51.63
2018-09-03T03:15:10.157Z,51.62
2018-09-03T03:16:10.630Z,51.66
2018-09-03T03:17:11.102Z,51.75
2018-09-03T03:18:11.578Z,51.79
2018-09-03T03:19:12.050Z,51.87
2018-09-03T03:20:12.523Z,51.98
2018-09-03T03:21:12.995Z,52.08
2018-09-03T03:22:13.470Z,52.19
2018-09-03T03:23:13.941Z,52.29
2018-09-03T03:24:14.416Z,52.38
2018-09-03T03:25:14.888Z,52.46
2018-09-03T03:26:15.361Z,52.55
2018-09-03T03:27:15.838Z,52.64
2018-09-03T03:28:16.307Z,52.72
2018-09-03T03:29:16.778Z,52.76
2018-09-03T03:30:17.253Z,52.79
2018-09-03T03:31:17.726Z,52.81
2018-09-03T03:32:18.198Z,52.87
2018-09-03T03:33:18.668Z,52.98
2018-09-03T03:34:19.142Z,53.09
2018-09-03T03:35:19.612Z,53.18
2018-09-03T03:36:20.087Z,53.33
2018-09-03T03:37:20.606Z,53.47
2018-09-03T03:38:21.026Z,53.61
2018-09-03T03:39:21.499Z,53.72
2018-09-03T03:40:21.968Z,53.78
2018-09-03T03:41:22.439Z,53.85
2018-09-03T03:42:22.908Z,53.89
2018-09-03T03:43:23.377Z,53.92
2018-09-03T03:44:23.850Z,53.86
2018-09-03T03:45:24.318Z,53.79
2018-09-03T03:46:24.787Z,53.74
2018-09-03T03:47:25.262Z,53.65
2018-09-03T03:48:25.729Z,53.51
2018-09-03T03:49:26.201Z,53.43
2018-09-03T03:50:26.668Z,53.36
2018-09-03T03:51:27.140Z,53.27
2018-09-03T03:52:27.611Z,53.18
2018-09-03T03:53:28.075Z,53.06
2018-09-03T03:54:28.546Z,52.91
2018-09-03T03:55:29.019Z,52.77
2018-09-03T03:56:29.489Z,52.64
2018-09-03T03:57:30.007Z,52.51
2018-09-03T03:58:30.425Z,52.40
2018-09-03T03:59:30.899Z,52.27
2018-09-03T04:00:31.366Z,52.24
2018-09-03T04:01:31.837Z,52.18
2018-09-03T04:02:32.357Z,52.12
2018-09-03T04:03:32.778Z,52.03
2018-09-03T04:04:33.249Z,51.99
2018-09-03T04:05:33.716Z,51.95
2018-09-03T04:06:34.189Z,51.89
2018-09-03T04:07:34.660Z,51.87
2018-09-03T04:08:35.130Z,51.82
2018-09-03T04:09:35.602Z,51.80
2018-09-03T04:10:36.074Z,51.77
2018-09-03T04:11:36.543Z,51.75
2018-09-03T04:12:37.017Z,51.71
2018-09-03T04:13:37.485Z,51.61
2018-09-03T04:14:37.960Z,51.58
2018-09-03T04:15:38.428Z,51.49
2018-09-03T04:16:38.901Z,51.47
2018-09-03T04:17:39.370Z,51.45
2018-09-03T04:18:39.842Z,51.47
2018-09-03T04:19:40.314Z,51.42
2018-09-03T04:20:40.794Z,51.40
2018-09-03T04:21:41.259Z,51.44
2018-09-03T04:22:41.730Z,51.48
2018-09-03T04:23:42.206Z,51.47
2018-09-03T04:24:42.707Z,51.50
2018-09-03T04:25:43.149Z,51.56
2018-09-03T04:26:43.621Z,51.58
2018-09-03T04:27:44.094Z,51.62
2018-09-03T04:28:44.646Z,51.63
2018-09-03T04:29:45.042Z,51.65
2018-09-03T04:30:45.510Z,51.72
2018-09-03T04:31:45.985Z,51.75
2018-09-03T04:32:46.459Z,51.79
2018-09-03T04:33:46.930Z,51.82
2018-09-03T04:34:47.407Z,51.87
2018-09-03T04:35:47.877Z,51.94
2018-09-03T04:36:48.351Z,52.01
2018-09-03T04:37:48.824Z,52.11
2018-09-03T04:38:49.321Z,52.24
2018-09-03T04:39:49.774Z,52.33
2018-09-03T04:40:50.243Z,52.40
2018-09-03T04:41:50.719Z,52.47
2018-09-03T04:42:51.189Z,52.56
2018-09-03T04:43:51.665Z,52.62
2018-09-03T04:44:52.135Z,52.68
2018-09-03T04:45:52.607Z,52.74
2018-09-03T04:46:53.082Z,52.77
2018-09-03T04:47:53.573Z,52.80
2018-09-03T04:48:54.026Z,52.84
2018-09-03T04:49:54.498Z,52.91
2018-09-03T04:50:54.972Z,53.00
2018-09-03T04:51:55.442Z,53.08
2018-09-03T04:52:55.965Z,53.17
2018-09-03T04:53:56.388Z,53.32
2018-09-03T04:54:56.856Z,53.45
2018-09-03T04:55:57.332Z,53.58
2018-09-03T04:56:57.799Z,53.67
2018-09-03T04:57:58.269Z,53.73
2018-09-03T04:58:58.740Z,53.79
2018-09-03T04:59:59.209Z,53.84
2018-09-03T05:00:59.680Z,53.82
2018-09-03T05:02:00.149Z,53.73
2018-09-03T05:03:00.619Z,53.66
2018-09-03T05:04:01.091Z,53.62
2018-09-03T05:05:01.559Z,53.56
2018-09-03T05:06:02.045Z,53.50
2018-09-03T05:07:02.501Z,53.38
2018-09-03T05:08:02.969Z,53.27
2018-09-03T05:09:03.442Z,53.11
2018-09-03T05:10:03.906Z,52.96
2018-09-03T05:11:04.379Z,52.82
2018-09-03T05:12:04.849Z,52.69
2018-09-03T05:13:05.316Z,52.50
2018-09-03T05:14:05.785Z,52.31
2018-09-03T05:15:06.254Z,52.12
2018-09-03T05:16:06.727Z,52.02
2018-09-03T05:17:07.197Z,51.91
2018-09-03T05:18:07.666Z,51.83
2018-09-03T05:19:08.135Z,51.77
2018-09-03T05:20:08.609Z,51.59
2018-09-03T05:21:09.075Z,51.46
2018-09-03T05:22:09.549Z,51.38
2018-09-03T05:23:10.020Z,51.24
2018-09-03T05:24:10.487Z,51.16
2018-09-03T05:25:10.962Z,51.06
2018-09-03T05:26:11.429Z,50.95
2018-09-03T05:27:11.900Z,50.92
2018-09-03T05:28:12.371Z,50.84
2018-09-03T05:29:12.842Z,50.75
2018-09-03T05:30:13.314Z,50.70
2018-09-03T05:31:13.850Z,50.63
2018-09-03T05:32:14.255Z,50.54
2018-09-03T05:33:14.731Z,50.51
2018-09-03T05:34:15.199Z,50.42
2018-09-03T05:35:15.674Z,50.40
2018-09-03T05:36:16.150Z,50.39
2018-09-03T05:37:16.615Z,50.35
2018-09-03T05:38:17.086Z,50.31
2018-09-03T05:39:17.565Z,50.27
2018-09-03T05:40:18.033Z,50.22
2018-09-03T05:41:18.504Z,50.22
2018-09-03T05:42:18.979Z,50.18
2018-09-03T05:43:19.548Z,50.12
2018-09-03T05:44:19.923Z,50.09
2018-09-03T05:45:20.399Z,50.06
2018-09-03T05:46:20.868Z,50.03
2018-09-03T05:47:21.342Z,50.00
2018-09-03T05:48:21.816Z,50.00
2018-09-03T05:49:22.291Z,49.99
2018-09-03T05:50:22.874Z,50.00
2018-09-03T05:51:23.235Z,50.00
2018-09-03T05:52:23.709Z,50.00
2018-09-03T05:53:24.184Z,50.06
2018-09-03T05:54:24.661Z,50.12
2018-09-03T05:55:25.136Z,50.16
2018-09-03T05:56:25.605Z,50.18
2018-09-03T05:57:26.078Z,50.22
2018-09-03T05:58:26.550Z,50.25
2018-09-03T05:59:27.025Z,50.28
2018-09-03T06:00:27.499Z,50.35
2018-09-03T06:01:27.975Z,50.38
2018-09-03T06:02:28.446Z,50.42
2018-09-03T06:03:28.919Z,50.46
2018-09-03T06:04:29.391Z,50.54
2018-09-03T06:05:29.864Z,50.60
2018-09-03T06:06:30.335Z,50.66
2018-09-03T06:07:30.807Z,50.71
2018-09-03T06:08:31.280Z,50.80
2018-09-03T06:09:31.753Z,50.82
2018-09-03T06:10:32.304Z,50.90
2018-09-03T06:11:32.695Z,50.92
2018-09-03T06:12:33.169Z,50.98
2018-09-03T06:13:33.638Z,51.02
2018-09-03T06:14:34.112Z,51.10
2018-09-03T06:15:34.581Z,51.15
2018-09-03T06:16:35.051Z,51.19
2018-09-03T06:17:35.523Z,51.19
2018-09-03T06:18:35.992Z,51.17
2018-09-03T06:19:36.462Z,51.14
2018-09-03T06:20:36.932Z,51.05
2018-09-03T06:21:37.402Z,50.97
2018-09-03T06:22:37.875Z,50.93
2018-09-03T06:23:38.394Z,50.75
2018-09-03T06:24:38.819Z,50.62
2018-09-03T06:25:39.284Z,50.46
2018-09-03T06:26:39.814Z,50.35
2018-09-03T06:27:40.226Z,50.27
2018-09-03T06:28:40.694Z,50.14
2018-09-03T06:29:41.166Z,50.01
2018-09-03T06:30:41.634Z,49.87
2018-09-03T06:31:42.104Z,49.71
2018-09-03T06:32:42.611Z,49.56
2018-09-03T06:33:43.046Z,49.44
2018-09-03T06:34:43.515Z,49.31
2018-09-03T06:35:43.986Z,49.19
2018-09-03T06:36:44.462Z,49.05
2018-09-03T06:37:45.034Z,48.94
2018-09-03T06:38:45.399Z,48.86
2018-09-03T06:39:45.875Z,48.71
2018-09-03T06:40:46.343Z,48.67
2018-09-03T06:41:46.815Z,48.58
2018-09-03T06:42:47.289Z,48.50
2018-09-03T06:43:47.758Z,48.45
2018-09-03T06:44:48.229Z,48.35
2018-09-03T06:45:48.765Z,48.29
2018-09-03T06:46:49.174Z,48.21
2018-09-03T06:47:49.651Z,48.14
2018-09-03T06:48:50.124Z,48.09
2018-09-03T06:49:50.596Z,48.02
2018-09-03T06:50:51.067Z,47.97
2018-09-03T06:51:51.541Z,47.95
2018-09-03T06:52:52.014Z,47.90
2018-09-03T06:53:52.487Z,47.84
2018-09-03T06:54:52.960Z,47.78
2018-09-03T06:55:53.435Z,47.75
2018-09-03T06:56:53.911Z,47.72
2018-09-03T06:57:54.382Z,47.69
2018-09-03T06:58:54.906Z,47.69
2018-09-03T06:59:55.331Z,47.72
2018-09-03T07:00:55.806Z,47.78
2018-09-03T07:01:56.279Z,47.84
2018-09-03T07:02:56.753Z,47.92
2018-09-03T07:03:57.228Z,47.98
2018-09-03T07:04:57.702Z,48.00
2018-09-03T07:05:58.184Z,48.00
2018-09-03T07:06:58.650Z,48.05
2018-09-03T07:07:59.127Z,48.09
2018-09-03T07:08:59.601Z,48.10
2018-09-03T07:10:00.074Z,48.12
2018-09-03T07:11:00.547Z,48.15
2018-09-03T07:12:01.022Z,48.22
2018-09-03T07:13:01.498Z,48.27
2018-09-03T07:14:01.970Z,48.30
2018-09-03T07:15:02.446Z,48.31
2018-09-03T07:16:02.914Z,48.38
2018-09-03T07:17:03.390Z,48.40
2018-09-03T07:18:03.866Z,48.45
2018-09-03T07:19:04.334Z,48.47
2018-09-03T07:20:04.807Z,48.49
2018-09-03T07:21:05.280Z,48.47
2018-09-03T07:22:05.753Z,48.46
2018-09-03T07:23:06.224Z,48.45
2018-09-03T07:24:06.696Z,48.42
2018-09-03T07:25:07.169Z,48.37
2018-09-03T07:26:07.640Z,48.35
2018-09-03T07:27:08.114Z,48.32
2018-09-03T07:28:08.584Z,48.34
2018-09-03T07:29:09.054Z,48.40
2018-09-03T07:30:09.528Z,48.40
2018-09-03T07:31:09.999Z,48.34
2018-09-03T07:32:10.470Z,48.25
2018-09-03T07:33:10.942Z,48.22
2018-09-03T07:34:11.412Z,48.22
2018-09-03T07:35:11.921Z,48.25
2018-09-03T07:36:12.356Z,48.25
2018-09-03T07:37:12.828Z,48.23
2018-09-03T07:38:13.298Z,48.20
2018-09-03T07:39:13.770Z,48.10
2018-09-03T07:40:14.241Z,48.00
2018-09-03T07:41:14.717Z,47.92
2018-09-03T07:42:15.185Z,47.85
2018-09-03T07:43:15.657Z,47.81
2018-09-03T07:44:16.155Z,47.75
2018-09-03T07:45:16.602Z,47.69
2018-09-03T07:46:17.077Z,47.61
2018-09-03T07:47:17.549Z,47.56
2018-09-03T07:48:18.022Z,47.45
2018-09-03T07:49:18.497Z,47.34
2018-09-03T07:50:18.974Z,47.22
2018-09-03T07:51:19.447Z,47.09
2018-09-03T07:52:19.923Z,46.95
2018-09-03T07:53:20.398Z,46.81
2018-09-03T07:54:20.926Z,46.62
2018-09-03T07:55:21.352Z,46.35
2018-09-03T07:56:21.829Z,46.03
2018-09-03T07:57:22.308Z,45.70
2018-09-03T07:58:22.789Z,45.33
2018-09-03T07:59:23.266Z,44.92
2018-09-03T08:00:23.747Z,44.48
2018-09-03T08:01:24.227Z,44.05
2018-09-03T08:02:24.707Z,43.66
2018-09-03T08:03:25.195Z,43.37
2018-09-03T08:04:25.672Z,42.95
2018-09-03T08:05:26.156Z,42.64
2018-09-03T08:06:26.637Z,42.31
2018-09-03T08:07:27.191Z,42.09
2018-09-03T08:08:27.604Z,41.81
2018-09-03T08:09:28.088Z,41.53
2018-09-03T08:10:28.573Z,41.17
2018-09-03T08:11:29.055Z,40.86
2018-09-03T08:12:29.541Z,40.58
2018-09-03T08:13:30.029Z,40.54
2018-09-03T08:14:30.510Z,40.46
2018-09-03T08:15:30.996Z,40.33
2018-09-03T08:16:31.481Z,40.24
2018-09-03T08:17:31.967Z,40.23
2018-09-03T08:18:32.456Z,40.21
2018-09-03T08:19:32.943Z,39.95
2018-09-03T08:20:33.431Z,39.83
2018-09-03T08:21:33.914Z,39.76
2018-09-03T08:22:34.400Z,39.72
2018-09-03T08:23:34.885Z,39.68
2018-09-03T08:24:35.372Z,39.59
2018-09-03T08:25:35.862Z,39.48
2018-09-03T08:26:36.550Z,39.35
2018-09-03T08:27:36.833Z,39.30
2018-09-03T08:28:37.322Z,39.14
2018-09-03T08:29:37.809Z,39.01
2018-09-03T08:30:38.299Z,38.90
2018-09-03T08:31:38.783Z,38.79
2018-09-03T08:32:39.273Z,38.74
2018-09-03T08:33:39.759Z,38.62
2018-09-03T08:34:40.247Z,38.56
2018-09-03T08:35:40.798Z,38.44
2018-09-03T08:36:41.221Z,38.39
2018-09-03T08:37:41.708Z,38.32
2018-09-03T08:38:42.399Z,38.35
2018-09-03T08:39:42.680Z,38.32
2018-09-03T08:40:43.166Z,38.28
2018-09-03T08:41:43.696Z,38.24
2018-09-03T08:42:44.136Z,38.17
2018-09-03T08:43:44.620Z,38.14
2018-09-03T08:44:45.162Z,38.14
2018-09-03T08:45:45.590Z,38.15
2018-09-03T08:46:46.073Z,38.23
2018-09-03T08:47:46.558Z,38.24
2018-09-03T08:48:47.038Z,38.24
2018-09-03T08:49:47.517Z,38.33
2018-09-03T08:50:48.003Z,38.41
2018-09-03T08:51:48.482Z,38.42
2018-09-03T08:52:48.962Z,38.63
2018-09-03T08:53:49.444Z,38.84
2018-09-03T08:54:49.976Z,39.13
2018-09-03T08:55:50.405Z,39.33
2018-09-03T08:56:50.898Z,39.54
2018-09-03T08:57:51.364Z,39.68
2018-09-03T08:58:51.845Z,39.77
2018-09-03T08:59:52.324Z,39.83
2018-09-03T09:00:52.801Z,39.87
2018-09-03T09:01:53.279Z,39.93
2018-09-03T09:02:53.757Z,40.04
2018-09-03T09:03:54.236Z,40.15
2018-09-03T09:04:54.713Z,40.28
2018-09-03T09:05:55.226Z,40.42
2018-09-03T09:06:55.667Z,40.58
2018-09-03T09:07:56.144Z,40.70
2018-09-03T09:08:56.624Z,40.84
2018-09-03T09:09:57.148Z,40.99
2018-09-03T09:10:57.576Z,41.11
2018-09-03T09:11:58.062Z,41.27
2018-09-03T09:12:58.526Z,41.38
2018-09-03T09:13:59.004Z,41.49
2018-09-03T09:14:59.538Z,41.60
2018-09-03T09:15:59.952Z,41.70
2018-09-03T09:17:00.428Z,41.77
2018-09-03T09:18:00.904Z,41.85
2018-09-03T09:19:01.378Z,41.93
2018-09-03T09:20:01.855Z,41.98
2018-09-03T09:21:02.327Z,42.04
2018-09-03T09:22:02.804Z,42.10
2018-09-03T09:23:03.278Z,42.15
2018-09-03T09:24:03.750Z,42.20
2018-09-03T09:25:04.299Z,42.23
2018-09-03T09:26:04.702Z,42.26
2018-09-03T09:27:05.174Z,42.30
2018-09-03T09:28:05.650Z,42.27
2018-09-03T09:29:06.124Z,42.35
2018-09-03T09:30:06.596Z,42.39
2018-09-03T09:31:07.069Z,42.40
2018-09-03T09:32:07.543Z,42.42
2018-09-03T09:33:08.017Z,42.43
2018-09-03T09:34:08.489Z,42.45
2018-09-03T09:35:08.963Z,42.45
2018-09-03T09:36:09.435Z,42.46
2018-09-03T09:37:09.913Z,42.47
2018-09-03T09:38:10.381Z,42.47
2018-09-03T09:39:10.853Z,42.48
2018-09-03T09:40:11.326Z,42.50
2018-09-03T09:41:11.800Z,42.49
2018-09-03T09:42:12.272Z,42.48
2018-09-03T09:43:12.749Z,42.47
2018-09-03T09:44:13.216Z,42.48
2018-09-03T09:45:13.689Z,42.46
2018-09-03T09:46:14.164Z,42.46
2018-09-03T09:47:14.637Z,42.46
2018-09-03T09:48:15.113Z,42.46
2018-09-03T09:49:15.581Z,42.46
2018-09-03T09:50:16.053Z,42.44
2018-09-03T09:51:16.730Z,42.42
2018-09-03T09:52:16.997Z,42.34
2018-09-03T09:53:17.473Z,42.26
2018-09-03T09:54:17.940Z,42.25
2018-09-03T09:55:18.413Z,42.24
2018-09-03T09:56:18.886Z,42.18
2018-09-03T09:57:19.362Z,42.10
2018-09-03T09:58:19.829Z,42.00
2018-09-03T09:59:20.302Z,41.84
2018-09-03T10:00:20.828Z,41.82
2018-09-03T10:01:21.249Z,41.79
2018-09-03T10:02:21.718Z,41.76
2018-09-03T10:03:22.191Z,41.76
2018-09-03T10:04:22.664Z,41.75
2018-09-03T10:05:23.190Z,41.73
2018-09-03T10:06:23.607Z,41.72
2018-09-03T10:07:24.080Z,41.76
2018-09-03T10:08:24.549Z,41.78
2018-09-03T10:09:25.022Z,41.80
2018-09-03T10:10:25.494Z,41.80
2018-09-03T10:11:25.967Z,41.78
2018-09-03T10:12:26.439Z,41.75
2018-09-03T10:13:26.908Z,41.75
2018-09-03T10:14:27.382Z,41.76
2018-09-03T10:15:27.853Z,41.76
2018-09-03T10:16:28.325Z,41.78
2018-09-03T10:17:28.800Z,41.81
2018-09-03T10:18:29.269Z,41.84
2018-09-03T10:19:29.742Z,41.88
2018-09-03T10:20:30.214Z,41.92
2018-09-03T10:21:30.684Z,41.96
2018-09-03T10:22:31.156Z,42.01
2018-09-03T10:23:31.626Z,42.03
2018-09-03T10:24:32.098Z,42.06
2018-09-03T10:25:32.624Z,42.09
2018-09-03T10:26:33.043Z,42.11
2018-09-03T10:27:33.516Z,42.14
2018-09-03T10:28:33.987Z,42.19
2018-09-03T10:29:34.455Z,42.18
2018-09-03T10:30:34.930Z,42.22
2018-09-03T10:31:35.400Z,42.24
2018-09-03T10:32:35.874Z,42.25
2018-09-03T10:33:36.340Z,42.25
2018-09-03T10:34:36.814Z,42.25
2018-09-03T10:35:37.286Z,42.25
2018-09-03T10:36:37.756Z,42.24
2018-09-03T10:37:38.228Z,42.23
2018-09-03T10:38:38.699Z,42.24
2018-09-03T10:39:39.171Z,42.24
2018-09-03T10:40:39.641Z,42.25
2018-09-03T10:41:40.114Z,42.26
2018-09-03T10:42:40.590Z,42.27
2018-09-03T10:43:41.057Z,42.27
2018-09-03T10:44:41.526Z,42.27
2018-09-03T10:45:42.066Z,42.27
2018-09-03T10:46:42.470Z,42.28
2018-09-03T10:47:42.957Z,42.29
2018-09-03T10:48:43.417Z,42.29
2018-09-03T10:49:43.882Z,42.30
2018-09-03T10:50:44.361Z,42.34
2018-09-03T10:51:44.825Z,42.46
2018-09-03T10:52:45.295Z,42.59
2018-09-03T10:53:45.767Z,42.73
2018-09-03T10:54:46.238Z,42.92
2018-09-03T10:55:46.709Z,43.10
2018-09-03T10:56:47.182Z,43.25
2018-09-03T10:57:47.651Z,43.42
2018-09-03T10:58:48.126Z,43.54
2018-09-03T10:59:48.596Z,43.65
2018-09-03T11:00:49.065Z,43.78
2018-09-03T11:01:49.538Z,43.90
2018-09-03T11:02:50.011Z,43.99
2018-09-03T11:03:50.485Z,44.04
2018-09-03T11:04:50.953Z,44.09
2018-09-03T11:05:51.436Z,44.11
2018-09-03T11:06:51.898Z,44.09
2018-09-03T11:07:52.374Z,44.08
2018-09-03T11:08:52.846Z,44.07
2018-09-03T11:09:53.318Z,44.03
2018-09-03T11:10:53.792Z,43.91
2018-09-03T11:11:54.266Z,43.87
2018-09-03T11:12:54.738Z,43.77
2018-09-03T11:13:55.213Z,43.68
2018-09-03T11:14:55.688Z,43.60
2018-09-03T11:15:56.162Z,43.51
2018-09-03T11:16:56.642Z,43.44
2018-09-03T11:17:57.118Z,43.36
2018-09-03T11:18:57.588Z,43.33
2018-09-03T11:19:58.103Z,43.32
2018-09-03T11:20:58.544Z,43.30
2018-09-03T11:21:59.017Z,43.28
2018-09-03T11:22:59.492Z,43.27
2018-09-03T11:24:00.004Z,43.26
2018-09-03T11:25:00.464Z,43.26
2018-09-03T11:26:00.918Z,43.28
2018-09-03T11:27:01.394Z,43.24
2018-09-03T11:28:01.870Z,43.27
2018-09-03T11:29:02.348Z,43.29
2018-09-03T11:30:02.822Z,43.33
2018-09-03T11:31:03.301Z,43.36
2018-09-03T11:32:03.777Z,43.42
2018-09-03T11:33:04.253Z,43.46
2018-09-03T11:34:04.728Z,43.49
2018-09-03T11:35:05.230Z,43.58
2018-09-03T11:36:05.680Z,43.59
2018-09-03T11:37:06.155Z,43.61
2018-09-03T11:38:06.631Z,43.66
2018-09-03T11:39:07.107Z,43.70
2018-09-03T11:40:07.587Z,43.73
2018-09-03T11:41:08.061Z,43.76
2018-09-03T11:42:08.535Z,43.80
2018-09-03T11:43:09.013Z,43.82
2018-09-03T11:44:09.487Z,43.84
2018-09-03T11:45:09.962Z,43.87
2018-09-03T11:46:10.439Z,43.87
2018-09-03T11:47:10.977Z,43.89
2018-09-03T11:48:11.388Z,43.92
2018-09-03T11:49:11.864Z,43.94
2018-09-03T11:50:12.543Z,43.95
2018-09-03T11:51:12.814Z,43.96
2018-09-03T11:52:13.293Z,43.96
2018-09-03T11:53:13.767Z,43.98
2018-09-03T11:54:14.240Z,43.99
2018-09-03T11:55:14.715Z,43.98
2018-09-03T11:56:15.192Z,43.98
2018-09-03T11:57:15.664Z,43.99
2018-09-03T11:58:16.140Z,43.99
2018-09-03T11:59:16.618Z,43.99
2018-09-03T12:00:17.091Z,44.02
2018-09-03T12:01:17.563Z,44.02
2018-09-03T12:02:18.041Z,44.01
2018-09-03T12:03:18.512Z,43.98
2018-09-03T12:04:18.988Z,43.98
2018-09-03T12:05:19.463Z,43.94
2018-09-03T12:06:19.938Z,43.94
2018-09-03T12:07:20.414Z,43.92
2018-09-03T12:08:20.886Z,43.89
2018-09-03T12:09:21.362Z,43.90
2018-09-03T12:10:21.833Z,43.88
2018-09-03T12:11:22.309Z,43.88
2018-09-03T12:12:22.786Z,43.87
2018-09-03T12:13:23.255Z,43.85
2018-09-03T12:14:23.729Z,43.83
2018-09-03T12:15:24.205Z,43.82
2018-09-03T12:16:24.679Z,43.80
2018-09-03T12:17:25.151Z,43.75
2018-09-03T12:18:25.629Z,43.69
2018-09-03T12:19:26.100Z,43.65
2018-09-03T12:20:26.579Z,43.61
2018-09-03T12:21:27.049Z,43.59
2018-09-03T12:22:27.523Z,43.56
2018-09-03T12:23:27.996Z,43.54
2018-09-03T12:24:28.471Z,43.54
2018-09-03T12:25:28.943Z,43.53
2018-09-03T12:26:29.619Z,43.51
2018-09-03T12:27:29.919Z,43.49
2018-09-03T12:28:30.365Z,43.48
2018-09-03T12:29:30.838Z,43.46
2018-09-03T12:30:31.313Z,43.44
2018-09-03T12:31:31.785Z,43.39
2018-09-03T12:32:32.267Z,43.34
2018-09-03T12:33:32.731Z,43.25
2018-09-03T12:34:33.207Z,43.21
2018-09-03T12:35:33.680Z,43.17
2018-09-03T12:36:34.157Z,43.14
2018-09-03T12:37:34.627Z,43.13
2018-09-03T12:38:35.100Z,43.13
2018-09-03T12:39:35.578Z,43.12
2018-09-03T12:40:36.051Z,43.12
2018-09-03T12:41:36.521Z,43.12
2018-09-03T12:42:36.994Z,43.12
2018-09-03T12:43:37.468Z,43.13
2018-09-03T12:44:37.940Z,43.15
2018-09-03T12:45:38.417Z,43.14
2018-09-03T12:46:38.891Z,43.13
2018-09-03T12:47:39.362Z,43.13
2018-09-03T12:48:39.835Z,43.11
2018-09-03T12:49:40.310Z,43.13
2018-09-03T12:50:40.782Z,43.17
2018-09-03T12:51:41.255Z,43.16
2018-09-03T12:52:41.728Z,43.17
2018-09-03T12:53:42.209Z,43.16
2018-09-03T12:54:42.675Z,43.18
2018-09-03T12:55:43.148Z,43.13
2018-09-03T12:56:43.621Z,43.13
2018-09-03T12:57:44.112Z,43.15
2018-09-03T12:58:44.591Z,43.14